Time;durP1;ratioP1;P1;durP2;ratioP2;P2;SDS_P1;SDS_P2;PMS_P1;PMS_P2;Temp;Humidity;BMP_temperature;BMP_pressure;BME280_temperature;BME280_humidity;BME280_pressure;Samples;Min_cycle;Max_cycle;Signal;HPM_P1;HPM_P2
2023/10/03 00:03:13;;;;;;;17.70;10.30;;;;;;;13.57;84.38;99022.45;436254;1253;109269;-42
2023/10/03 00:13:19;;;;;;;21.70;11.10;;;;;;;13.57;84.41;99013.48;436281;1247;97877;-42
2023/10/03 00:23:24;;;;;;;21.00;10.00;;;;;;;13.55;84.72;99010.83;436343;1253;109392;-42
2023/10/03 00:53:35;;;;;;;22.80;10.50;;;;;;;13.75;84.75;98989.61;436242;1253;108197;-42
2023/10/03 01:03:39;;;;;;;21.40;10.80;;;;;;;13.82;84.95;98979.66;436312;1247;97844;-42
2023/10/03 01:43:54;;;;;;;16.30;8.60;;;;;;;13.95;84.49;98967.15;436417;1252;108025;-42
2023/10/03 01:53:58;;;;;;;13.30;8.20;;;;;;;13.95;84.42;98954.80;436415;1253;97347;-42
2023/10/03 02:34:14;;;;;;;14.20;7.80;;;;;;;13.78;83.72;98925.34;436320;1254;108336;-42
2023/10/03 02:44:18;;;;;;;17.40;7.40;;;;;;;13.74;83.75;98920.97;436508;1253;97871;-42
2023/10/03 03:14:32;;;;;;;12.80;7.20;;;;;;;13.79;83.76;98886.48;436641;1247;97980;-41
2023/10/03 03:24:36;;;;;;;12.90;8.00;;;;;;;13.76;83.55;98879.27;436406;1252;106846;-42
2023/10/03 03:34:40;;;;;;;15.60;8.30;;;;;;;13.66;83.69;98868.10;436366;1253;97847;-42
2023/10/03 03:44:43;;;;;;;17.90;9.70;;;;;;;13.50;83.70;98853.11;436391;1251;110203;-42
2023/10/03 04:04:50;;;;;;;17.10;9.60;;;;;;;13.38;83.97;98847.66;436300;1248;98430;-42
2023/10/03 04:14:56;;;;;;;20.10;9.60;;;;;;;13.29;83.99;98833.14;436328;1252;108309;-42
2023/10/03 04:25:00;;;;;;;15.90;9.10;;;;;;;13.22;84.04;98820.76;436375;1253;97905;-42
2023/10/03 04:35:05;;;;;;;15.60;8.60;;;;;;;13.15;84.33;98816.73;436231;1253;110542;-42
2023/10/03 04:45:10;;;;;;;19.50;8.50;;;;;;;13.25;84.67;98809.33;436401;1253;107936;-44
2023/10/03 04:55:17;;;;;;;16.90;7.60;;;;;;;13.51;84.60;98804.77;436452;1248;97986;-42
2023/10/03 05:05:22;;;;;;;17.20;7.60;;;;;;;13.72;84.62;98802.88;436335;1251;108120;-41
2023/10/03 05:25:29;;;;;;;13.90;7.10;;;;;;;14.31;84.07;98798.40;436440;1254;110315;-42
2023/10/03 05:35:36;;;;;;;14.80;7.00;;;;;;;14.65;83.89;98795.04;436401;1253;107834;-43
2023/10/03 06:05:47;;;;;;;17.10;7.40;;;;;;;16.56;83.07;98774.60;436249;1261;107523;-42
2023/10/03 06:15:52;;;;;;;18.30;9.30;;;;;;;17.50;81.60;98779.77;436538;1253;97440;-42
2023/10/03 06:25:54;;;;;;;18.10;7.80;;;;;;;18.34;80.55;98772.58;436387;1253;97877;-42
2023/10/03 06:35:58;;;;;;;14.20;7.90;;;;;;;19.11;78.41;98771.79;436205;1248;108121;-42
2023/10/03 06:56:04;;;;;;;16.20;8.80;;;;;;;18.80;75.39;98760.58;436522;1248;97817;-42
2023/10/03 07:06:07;;;;;;;16.10;6.70;;;;;;;18.74;74.65;98758.22;436207;1252;107560;-41
2023/10/03 07:26:14;;;;;;;17.20;8.40;;;;;;;19.11;73.88;98755.81;436455;1253;96587;-43
2023/10/03 07:36:18;;;;;;;16.60;7.20;;;;;;;19.41;73.37;98749.20;436324;1248;108115;-41
2023/10/03 07:46:26;;;;;;;12.40;6.50;;;;;;;20.06;72.20;98745.29;436418;1248;97865;-43
2023/10/03 07:56:31;;;;;;;13.50;8.30;;;;;;;20.98;70.75;98733.79;436475;1254;108271;-42
2023/10/03 08:06:50;;;;;;;14.90;8.00;;;;;;;21.62;69.61;98731.08;436375;1248;97798;-42
2023/10/03 08:37:02;;;;;;;18.80;8.60;;;;;;;22.53;64.40;98702.14;436444;1248;97489;-43
2023/10/03 08:47:09;;;;;;;12.60;7.10;;;;;;;22.88;64.07;98692.47;436471;1252;110403;-41
2023/10/03 08:57:13;;;;;;;15.90;8.10;;;;;;;23.31;63.84;98692.52;436437;1248;107351;-41
2023/10/03 09:07:23;;;;;;;11.80;6.80;;;;;;;23.62;62.38;98681.92;436470;1254;96905;-41
2023/10/03 09:17:27;;;;;;;11.70;6.90;;;;;;;23.62;60.30;98660.18;436686;1251;97572;-42
2023/10/03 09:37:34;;;;;;;19.30;8.50;;;;;;;23.87;59.48;98643.28;436339;1251;118544;-41
2023/10/03 09:47:38;;;;;;;16.40;8.50;;;;;;;24.09;59.03;98640.73;436403;1251;109409;-41
2023/10/03 10:07:51;;;;;;;16.90;9.40;;;;;;;24.30;56.58;98624.30;436403;1251;110376;-41
2023/10/03 10:17:56;;;;;;;28.40;8.90;;;;;;;24.29;55.87;98618.25;436492;1248;108176;-41
2023/10/03 10:28:02;;;;;;;18.30;8.50;;;;;;;24.42;55.94;98605.92;436376;1247;97868;-41
2023/10/03 10:58:14;;;;;;;25.20;10.40;;;;;;;24.72;54.28;98572.44;436547;1247;118315;-41
2023/10/03 11:08:17;;;;;;;22.80;10.30;;;;;;;24.81;54.32;98562.58;436423;1251;106566;-41
2023/10/03 11:18:26;;;;;;;19.50;9.50;;;;;;;24.93;53.52;98544.70;436563;1251;97928;-41
2023/10/03 11:28:29;;;;;;;23.20;11.60;;;;;;;24.85;52.50;98533.55;436474;1251;110601;-43
2023/10/03 11:48:47;;;;;;;28.90;12.60;;;;;;;24.81;53.31;98518.25;436576;1250;96648;-40
2023/10/03 11:59:05;;;;;;;29.10;12.60;;;;;;;24.79;51.99;98497.20;436489;1251;97976;-42
2023/10/03 12:09:23;;;;;;;32.30;13.30;;;;;;;24.61;51.14;98489.85;436429;1247;108763;-41
2023/10/03 12:19:31;;;;;;;27.20;13.10;;;;;;;24.46;50.93;98467.66;436507;1251;120111;-42
2023/10/03 12:29:37;;;;;;;24.40;11.80;;;;;;;24.48;51.08;98458.08;436331;1247;108146;-43
2023/10/03 12:49:43;;;;;;;25.20;12.20;;;;;;;24.61;50.75;98450.48;436483;1247;109177;-43
2023/10/03 12:59:49;;;;;;;22.50;10.40;;;;;;;24.56;49.38;98451.48;436455;1251;109601;-42
2023/10/03 13:19:55;;;;;;;21.60;11.10;;;;;;;24.45;49.40;98425.69;436461;1251;96699;-42
2023/10/03 13:29:58;;;;;;;25.60;9.70;;;;;;;24.39;49.80;98417.55;436310;1248;107488;-42
2023/10/03 13:50:12;;;;;;;14.90;9.40;;;;;;;24.01;49.17;98408.64;436423;1251;107925;-42
2023/10/03 14:00:15;;;;;;;19.00;9.50;;;;;;;23.79;49.61;98386.75;436639;1251;97861;-42
2023/10/03 14:10:20;;;;;;;28.10;9.10;;;;;;;23.82;50.09;98382.16;436523;1251;110180;-42
2023/10/03 14:20:25;;;;;;;20.10;9.20;;;;;;;23.80;50.08;98352.33;436717;1247;107922;-41
2023/10/03 14:40:38;;;;;;;20.90;8.40;;;;;;;23.69;50.28;98357.09;436418;1247;110051;-42
2023/10/03 14:50:42;;;;;;;20.10;8.70;;;;;;;23.33;50.99;98368.72;436261;1247;107261;-42
2023/10/03 15:00:46;;;;;;;14.80;8.20;;;;;;;23.05;51.66;98372.25;436427;1247;98471;-42
2023/10/03 15:11:00;;;;;;;18.50;8.70;;;;;;;22.80;52.27;98352.38;436542;1251;112507;-42
2023/10/03 15:21:04;;;;;;;17.50;8.10;;;;;;;22.70;52.61;98343.13;436396;1251;108106;-42
2023/10/03 15:31:07;;;;;;;20.00;8.20;;;;;;;22.63;53.13;98331.95;436355;1247;97893;-42
2023/10/03 15:51:39;;;;;;;14.60;8.30;;;;;;;22.57;53.75;98320.64;436602;1251;108122;-43
2023/10/03 16:01:42;;;;;;;24.30;9.10;;;;;;;22.44;54.09;98312.02;436649;1247;97500;-43
2023/10/03 16:21:51;;;;;;;15.90;8.00;;;;;;;21.78;55.51;98305.03;436426;1251;97864;-42
2023/10/03 16:31:53;;;;;;;19.90;7.80;;;;;;;21.51;56.10;98309.73;436577;1248;97902;-41
2023/10/03 16:52:00;;;;;;;13.60;8.60;;;;;;;21.07;57.43;98312.59;436349;1247;107950;-41
2023/10/03 17:02:03;;;;;;;17.00;8.60;;;;;;;20.88;58.05;98306.49;436399;1252;97874;-41
2023/10/03 17:12:08;;;;;;;17.10;9.60;;;;;;;20.82;58.59;98316.09;436504;1251;96570;-42
2023/10/03 17:22:10;;;;;;;16.30;8.20;;;;;;;20.74;58.81;98312.23;436724;1250;107926;-41
2023/10/03 17:32:13;;;;;;;12.70;7.80;;;;;;;20.66;59.07;98315.86;436445;1248;96644;-42
2023/10/03 17:42:16;;;;;;;14.70;8.60;;;;;;;20.56;59.32;98314.12;436446;1250;98984;-41
2023/10/03 17:52:21;;;;;;;19.50;7.80;;;;;;;20.53;59.63;98312.31;436444;1247;108236;-41
2023/10/03 18:02:28;;;;;;;13.80;8.30;;;;;;;20.48;59.81;98310.07;436415;1251;97886;-42
2023/10/03 18:12:34;;;;;;;13.60;9.10;;;;;;;20.42;59.94;98314.42;436453;1251;108071;-40
2023/10/03 18:32:42;;;;;;;16.40;8.20;;;;;;;20.19;60.52;98315.25;436512;1251;108561;-40
2023/10/03 18:43:00;;;;;;;15.30;6.70;;;;;;;20.17;60.76;98307.96;436317;1270;97963;-41
2023/10/03 18:53:03;;;;;;;17.20;8.30;;;;;;;20.15;61.20;98298.05;436467;1251;97781;-40
2023/10/03 19:03:09;;;;;;;21.20;7.20;;;;;;;20.07;61.39;98293.16;436364;1251;110098;-41
2023/10/03 19:13:28;;;;;;;14.40;7.30;;;;;;;19.95;61.68;98276.85;436451;1251;107762;-40
2023/10/03 19:23:37;;;;;;;12.10;7.20;;;;;;;19.79;61.99;98268.88;436387;1251;97899;-41
2023/10/03 19:33:41;;;;;;;14.30;7.10;;;;;;;19.73;62.26;98263.52;436547;1247;109624;-42
2023/10/03 19:43:59;;;;;;;14.00;6.10;;;;;;;19.70;62.57;98234.63;436559;1251;107556;-41
2023/10/03 19:54:02;;;;;;;14.40;6.50;;;;;;;19.61;62.65;98228.03;436352;1252;97893;-42
2023/10/03 20:14:09;;;;;;;13.40;6.60;;;;;;;19.55;62.99;98240.63;436394;1251;108080;-41
2023/10/03 20:24:13;;;;;;;15.00;6.30;;;;;;;19.66;63.19;98262.60;436215;1251;96568;-42
2023/10/03 20:34:17;;;;;;;12.90;6.20;;;;;;;19.78;63.07;98268.95;436508;1253;97447;-40
2023/10/03 20:44:19;;;;;;;13.60;5.60;;;;;;;19.90;63.05;98278.11;436440;1247;107760;-43
2023/10/03 20:54:23;;;;;;;11.00;6.50;;;;;;;20.08;62.78;98296.90;436524;1252;97956;-42
2023/10/03 21:04:30;;;;;;;18.30;6.20;;;;;;;20.14;62.80;98360.52;436504;1253;96638;-40
2023/10/03 21:14:32;;;;;;;17.10;7.40;;;;;;;19.63;64.33;98419.68;436401;1251;108127;-42
2023/10/03 21:24:36;;;;;;;7.30;4.50;;;;;;;19.33;65.98;98474.90;436389;1260;97928;-41
2023/10/03 21:34:39;;;;;;;4.10;2.30;;;;;;;18.58;69.95;98505.48;436456;1251;108531;-42
2023/10/03 21:44:57;;;;;;;4.00;2.40;;;;;;;17.79;72.06;98527.40;436340;1247;98549;-41
2023/10/03 22:15:09;;;;;;;6.40;2.80;;;;;;;16.78;76.24;98630.60;436418;1247;97874;-41
2023/10/03 22:25:13;;;;;;;7.60;2.10;;;;;;;16.17;77.38;98643.57;436311;1253;107655;-45
2023/10/03 22:35:21;;;;;;;5.20;2.40;;;;;;;15.87;77.36;98664.49;436467;1253;98339;-43
2023/10/03 22:45:23;;;;;;;4.70;2.40;;;;;;;15.82;77.52;98652.19;436274;1253;109465;-43
2023/10/03 23:05:31;;;;;;;7.60;2.80;;;;;;;15.72;77.64;98691.05;436471;1247;97861;-43
2023/10/03 23:25:59;;;;;;;5.30;2.50;;;;;;;15.72;78.21;98683.64;436328;1253;96642;-42
2023/10/03 23:36:17;;;;;;;8.90;3.20;;;;;;;15.83;78.02;98742.01;436378;1254;111462;-42
